Time;durP1;ratioP1;P1;durP2;ratioP2;P2;SDS_P1;SDS_P2;PMS_P1;PMS_P2;Temp;Humidity;BMP_temperature;BMP_pressure;BME280_temperature;BME280_humidity;BME280_pressure;Samples;Min_cycle;Max_cycle;Signal;HPM_P1;HPM_P2
2021/06/10 00:01:42;;;;;;;12.80;11.70;;;;;;;;;;3618994;39;20527;-75
2021/06/10 00:04:09;;;;;;;13.47;12.07;;;;;;;;;;3620516;39;20453;-75
2021/06/10 00:06:35;;;;;;;12.77;11.77;;;;;;;;;;3610067;39;20465;-75
2021/06/10 00:09:01;;;;;;;13.20;11.93;;;;;;;;;;3610018;39;20444;-75
2021/06/10 00:11:27;;;;;;;12.60;11.17;;;;;;;;;;3622496;39;20774;-75
2021/06/10 00:13:53;;;;;;;13.30;12.10;;;;;;;;;;3620367;39;20497;-75
2021/06/10 00:16:19;;;;;;;11.53;10.53;;;;;;;;;;3609899;39;20405;-75
2021/06/10 00:18:48;;;;;;;12.13;10.90;;;;;;;;;;3612050;39;20413;-75
2021/06/10 00:21:14;;;;;;;11.27;10.17;;;;;;;;;;3611805;39;20397;-75
2021/06/10 00:23:40;;;;;;;11.13;10.13;;;;;;;;;;3619727;39;20410;-75
2021/06/10 00:26:06;;;;;;;10.33;9.33;;;;;;;;;;3608086;39;20413;-75
2021/06/10 00:28:32;;;;;;;11.30;10.30;;;;;;;;;;3622098;39;20401;-75
2021/06/10 00:30:59;;;;;;;11.23;10.17;;;;;;;;;;3623336;39;20381;-75
2021/06/10 00:33:26;;;;;;;10.77;9.87;;;;;;;;;;3610299;39;20401;-75
2021/06/10 00:35:52;;;;;;;12.80;10.93;;;;;;;;;;3622117;39;20824;-75
2021/06/10 00:38:18;;;;;;;12.17;11.13;;;;;;;;;;3602012;39;20406;-75
2021/06/10 00:40:44;;;;;;;12.23;10.93;;;;;;;;;;3608399;39;20412;-75
2021/06/10 00:43:10;;;;;;;15.27;11.10;;;;;;;;;;3613426;39;20525;-75
2021/06/10 00:45:36;;;;;;;13.57;12.20;;;;;;;;;;3622426;39;20444;-75
2021/06/10 00:48:02;;;;;;;13.77;12.47;;;;;;;;;;3622174;39;20405;-75
2021/06/10 00:50:39;;;;;;;16.07;11.67;;;;;;;;;;3608905;39;20816;-75
2021/06/10 00:53:05;;;;;;;15.23;12.97;;;;;;;;;;3610911;39;20746;-74
2021/06/10 00:55:32;;;;;;;13.97;12.57;;;;;;;;;;3621003;39;20517;-74
2021/06/10 00:57:58;;;;;;;12.50;11.30;;;;;;;;;;3619613;39;20408;-74
2021/06/10 01:00:24;;;;;;;13.43;12.23;;;;;;;;;;3608540;39;20412;-75
2021/06/10 01:02:50;;;;;;;17.37;14.20;;;;;;;;;;3726156;22;20458;-79
2021/06/10 01:05:16;;;;;;;14.67;13.27;;;;;;;;;;3616438;39;20413;-79
2021/06/10 01:07:52;;;;;;;16.00;13.80;;;;;;;;;;3612136;39;20447;-79
2021/06/10 01:10:25;;;;;;;14.93;13.20;;;;;;;;;;3617765;39;20427;-79
2021/06/10 01:12:57;;;;;;;14.10;12.70;;;;;;;;;;3612960;39;20437;-79
2021/06/10 01:15:25;;;;;;;15.07;13.43;;;;;;;;;;3613476;39;20402;-78
2021/06/10 01:17:51;;;;;;;16.33;14.83;;;;;;;;;;3605682;39;20422;-79
2021/06/10 01:20:19;;;;;;;17.93;16.10;;;;;;;;;;3612333;39;20386;-79
2021/06/10 01:22:59;;;;;;;16.30;14.17;;;;;;;;;;3615638;39;20412;-79
2021/06/10 01:25:26;;;;;;;17.37;13.80;;;;;;;;;;3623450;39;20408;-79
2021/06/10 01:27:53;;;;;;;18.50;16.60;;;;;;;;;;3615451;39;20426;-79
2021/06/10 01:30:24;;;;;;;17.27;15.43;;;;;;;;;;3605593;39;20771;-79
2021/06/10 01:32:55;;;;;;;19.03;16.80;;;;;;;;;;3598036;39;20716;-79
2021/06/10 01:35:23;;;;;;;18.20;16.30;;;;;;;;;;3614662;39;20442;-79
2021/06/10 01:37:50;;;;;;;18.27;15.30;;;;;;;;;;3608001;39;20441;-79
2021/06/10 01:40:17;;;;;;;17.77;16.10;;;;;;;;;;3607545;39;20394;-79
2021/06/10 01:42:44;;;;;;;17.63;15.83;;;;;;;;;;3607723;39;20420;-79
2021/06/10 01:45:11;;;;;;;17.20;14.77;;;;;;;;;;3616362;39;20450;-79
2021/06/10 01:47:44;;;;;;;17.30;15.60;;;;;;;;;;3614606;39;20686;-79
2021/06/10 01:50:13;;;;;;;16.57;14.63;;;;;;;;;;3597389;39;20474;-79
2021/06/10 01:52:40;;;;;;;16.47;14.90;;;;;;;;;;3603413;39;20862;-79
2021/06/10 01:55:08;;;;;;;19.17;15.63;;;;;;;;;;3601066;39;20393;-79
2021/06/10 01:57:34;;;;;;;19.13;15.83;;;;;;;;;;3607480;39;20441;-79
2021/06/10 02:00:01;;;;;;;18.20;16.40;;;;;;;;;;3598434;39;20387;-79
2021/06/10 02:02:27;;;;;;;17.60;15.80;;;;;;;;;;3608507;39;20431;-79
2021/06/10 02:04:54;;;;;;;18.60;16.60;;;;;;;;;;3606042;39;20456;-79
2021/06/10 02:07:21;;;;;;;21.47;15.50;;;;;;;;;;3618836;39;20454;-79
2021/06/10 02:09:48;;;;;;;16.23;14.80;;;;;;;;;;3616543;39;20417;-79
2021/06/10 02:12:15;;;;;;;15.80;14.30;;;;;;;;;;3586564;39;20413;-79
2021/06/10 02:14:42;;;;;;;16.30;14.70;;;;;;;;;;3603695;39;20418;-79
2021/06/10 02:17:08;;;;;;;17.57;15.47;;;;;;;;;;3598612;39;20421;-79
2021/06/10 02:19:36;;;;;;;17.93;15.90;;;;;;;;;;3606154;39;20445;-79
2021/06/10 02:22:02;;;;;;;15.77;14.23;;;;;;;;;;3606105;39;20443;-79
2021/06/10 02:24:29;;;;;;;14.47;13.03;;;;;;;;;;3605341;39;20398;-79
2021/06/10 02:26:55;;;;;;;17.23;15.43;;;;;;;;;;3607757;39;20406;-78
2021/06/10 02:29:22;;;;;;;16.87;15.17;;;;;;;;;;3604867;39;20850;-78
2021/06/10 02:31:48;;;;;;;17.10;15.30;;;;;;;;;;3597314;39;20406;-79
2021/06/10 02:34:15;;;;;;;16.90;15.10;;;;;;;;;;3594157;39;20741;-78
2021/06/10 02:36:46;;;;;;;15.13;13.80;;;;;;;;;;3596720;39;21613;-78
2021/06/10 02:39:13;;;;;;;18.53;16.43;;;;;;;;;;3615537;39;20512;-78
2021/06/10 02:41:42;;;;;;;18.07;15.47;;;;;;;;;;3604939;39;20437;-78
2021/06/10 02:44:10;;;;;;;16.57;14.93;;;;;;;;;;3604759;39;20425;-79
2021/06/10 02:46:37;;;;;;;17.67;15.80;;;;;;;;;;3605747;39;20501;-79
2021/06/10 02:49:03;;;;;;;17.23;15.40;;;;;;;;;;3605218;39;20416;-79
2021/06/10 02:51:32;;;;;;;20.47;18.53;;;;;;;;;;3597752;39;20487;-79
2021/06/10 02:53:58;;;;;;;17.13;15.40;;;;;;;;;;3598285;39;21379;-79
2021/06/10 02:56:26;;;;;;;17.60;15.83;;;;;;;;;;3597523;39;20432;-78
2021/06/10 02:58:53;;;;;;;17.37;15.77;;;;;;;;;;3607150;39;20409;-78
2021/06/10 03:01:20;;;;;;;17.37;15.57;;;;;;;;;;3605262;39;20429;-80
2021/06/10 03:03:46;;;;;;;16.77;15.17;;;;;;;;;;3589519;39;20442;-79
2021/06/10 03:06:12;;;;;;;18.00;16.00;;;;;;;;;;3602820;39;20507;-80
2021/06/10 03:08:39;;;;;;;17.80;16.00;;;;;;;;;;3604248;39;20411;-79
2021/06/10 03:11:06;;;;;;;20.43;16.50;;;;;;;;;;3591929;39;21292;-79
2021/06/10 03:13:34;;;;;;;18.00;16.30;;;;;;;;;;3596523;39;20454;-79
2021/06/10 03:16:01;;;;;;;19.60;17.67;;;;;;;;;;3605956;39;20425;-79
2021/06/10 03:18:28;;;;;;;18.40;16.50;;;;;;;;;;3596186;39;20382;-81
2021/06/10 03:20:54;;;;;;;17.33;15.53;;;;;;;;;;3614879;39;20812;-80
2021/06/10 03:23:21;;;;;;;21.20;17.40;;;;;;;;;;3605057;39;20394;-80
2021/06/10 03:25:49;;;;;;;25.70;18.57;;;;;;;;;;3603372;39;20402;-80
2021/06/10 03:28:15;;;;;;;18.43;16.53;;;;;;;;;;3604881;39;20397;-80
2021/06/10 03:30:41;;;;;;;21.40;19.17;;;;;;;;;;3595997;39;20409;-80
2021/06/10 03:33:08;;;;;;;23.87;18.90;;;;;;;;;;3595949;39;20838;-80
2021/06/10 03:35:38;;;;;;;20.30;18.13;;;;;;;;;;3603849;39;20480;-80
2021/06/10 03:38:05;;;;;;;21.93;18.90;;;;;;;;;;3604787;39;20494;-81
2021/06/10 03:40:32;;;;;;;23.27;20.80;;;;;;;;;;3592791;39;20418;-80
2021/06/10 03:42:58;;;;;;;21.60;18.80;;;;;;;;;;3595149;39;20413;-80
2021/06/10 03:45:26;;;;;;;23.77;20.80;;;;;;;;;;3604147;39;20809;-80
2021/06/10 03:47:53;;;;;;;19.60;17.80;;;;;;;;;;3594398;39;20378;-80
2021/06/10 03:50:19;;;;;;;22.23;19.50;;;;;;;;;;3596707;39;20406;-80
2021/06/10 03:52:49;;;;;;;21.07;18.87;;;;;;;;;;3600162;39;20842;-80
2021/06/10 03:55:15;;;;;;;22.10;19.83;;;;;;;;;;3601680;39;20438;-79
2021/06/10 03:57:41;;;;;;;28.30;21.33;;;;;;;;;;3587756;39;20390;-80
2021/06/10 04:00:09;;;;;;;20.13;18.03;;;;;;;;;;3596797;39;20426;-80
2021/06/10 04:02:35;;;;;;;20.67;18.67;;;;;;;;;;3614131;39;20409;-80
2021/06/10 04:05:01;;;;;;;21.87;19.30;;;;;;;;;;3612581;39;20418;-79
2021/06/10 04:07:27;;;;;;;21.80;19.80;;;;;;;;;;3596299;39;20390;-80
2021/06/10 04:09:54;;;;;;;22.17;19.87;;;;;;;;;;3613474;39;20405;-80
2021/06/10 04:12:20;;;;;;;26.07;20.37;;;;;;;;;;3603666;39;20437;-80
2021/06/10 04:14:46;;;;;;;22.60;20.37;;;;;;;;;;3605089;39;20460;-80
2021/06/10 04:17:12;;;;;;;23.47;21.20;;;;;;;;;;3614409;39;20748;-79
2021/06/10 04:19:38;;;;;;;20.60;18.47;;;;;;;;;;3616201;39;20421;-80
2021/06/10 04:22:04;;;;;;;22.10;19.90;;;;;;;;;;3603120;39;20394;-80
2021/06/10 04:24:31;;;;;;;24.00;21.50;;;;;;;;;;3614221;39;20414;-80
2021/06/10 04:26:57;;;;;;;24.27;21.60;;;;;;;;;;3603654;39;20841;-80
2021/06/10 04:29:23;;;;;;;23.40;21.20;;;;;;;;;;3596783;39;20402;-81
2021/06/10 04:31:49;;;;;;;22.00;19.90;;;;;;;;;;3604030;39;20483;-79
2021/06/10 04:34:15;;;;;;;22.20;20.13;;;;;;;;;;3594730;39;20424;-79
2021/06/10 04:36:41;;;;;;;28.00;19.83;;;;;;;;;;3595260;39;21220;-80
2021/06/10 04:39:07;;;;;;;22.80;20.23;;;;;;;;;;3596664;39;20394;-80
2021/06/10 04:41:34;;;;;;;24.23;20.77;;;;;;;;;;3596557;39;20414;-80
2021/06/10 04:44:00;;;;;;;23.60;20.67;;;;;;;;;;3613104;39;20449;-80
2021/06/10 04:46:26;;;;;;;22.10;19.23;;;;;;;;;;3594766;39;20428;-80
2021/06/10 04:48:53;;;;;;;21.17;18.97;;;;;;;;;;3609502;39;20883;-80
2021/06/10 04:51:19;;;;;;;21.27;18.80;;;;;;;;;;3613688;39;21566;-79
2021/06/10 04:53:46;;;;;;;22.33;19.63;;;;;;;;;;3605410;39;20506;-79
2021/06/10 04:56:13;;;;;;;24.13;20.37;;;;;;;;;;3596576;39;20449;-81
2021/06/10 04:58:39;;;;;;;22.60;19.90;;;;;;;;;;3617651;39;20426;-80
2021/06/10 05:01:05;;;;;;;20.63;18.73;;;;;;;;;;3596572;39;20418;-80
2021/06/10 05:03:31;;;;;;;22.10;19.90;;;;;;;;;;3594577;39;20444;-80
2021/06/10 05:05:58;;;;;;;22.33;19.80;;;;;;;;;;3606156;39;20475;-80
2021/06/10 05:08:24;;;;;;;20.70;18.57;;;;;;;;;;3597172;39;20414;-81
2021/06/10 05:10:50;;;;;;;21.73;18.10;;;;;;;;;;3605641;39;20418;-80
2021/06/10 05:13:16;;;;;;;22.10;19.90;;;;;;;;;;3596660;39;20436;-80
2021/06/10 05:15:44;;;;;;;22.80;20.50;;;;;;;;;;3605950;39;20390;-80
2021/06/10 05:18:11;;;;;;;21.90;19.80;;;;;;;;;;3601970;39;20455;-80
2021/06/10 05:20:37;;;;;;;19.83;17.93;;;;;;;;;;3609022;39;20900;-80
2021/06/10 05:23:03;;;;;;;19.30;17.33;;;;;;;;;;3605213;39;20413;-80
2021/06/10 05:25:29;;;;;;;19.23;17.23;;;;;;;;;;3614998;39;20393;-80
2021/06/10 05:27:56;;;;;;;21.33;18.00;;;;;;;;;;3594024;39;20731;-80
2021/06/10 05:30:22;;;;;;;20.53;18.47;;;;;;;;;;3596074;39;20540;-80
2021/06/10 05:32:48;;;;;;;20.10;17.13;;;;;;;;;;3598850;39;20430;-81
2021/06/10 05:35:15;;;;;;;19.87;17.90;;;;;;;;;;3595426;39;20405;-80
2021/06/10 05:37:41;;;;;;;19.00;17.07;;;;;;;;;;3602694;39;20525;-80
2021/06/10 05:40:08;;;;;;;19.30;17.47;;;;;;;;;;3603648;39;20416;-79
2021/06/10 05:42:34;;;;;;;23.47;19.10;;;;;;;;;;3596240;39;20504;-80
2021/06/10 05:45:00;;;;;;;29.97;20.83;;;;;;;;;;3594336;39;20391;-79
2021/06/10 05:47:28;;;;;;;22.00;19.67;;;;;;;;;;3602865;39;20473;-79
2021/06/10 05:49:54;;;;;;;20.67;18.77;;;;;;;;;;3610533;39;20453;-80
2021/06/10 05:52:23;;;;;;;20.43;18.40;;;;;;;;;;3605294;39;20719;-79
2021/06/10 05:54:49;;;;;;;19.47;17.57;;;;;;;;;;3595731;39;20410;-80
2021/06/10 05:57:16;;;;;;;20.33;18.50;;;;;;;;;;3598550;39;20413;-79
2021/06/10 05:59:43;;;;;;;19.83;17.70;;;;;;;;;;3612346;39;20529;-80
2021/06/10 06:02:09;;;;;;;21.57;19.30;;;;;;;;;;3595290;39;21261;-80
2021/06/10 06:04:35;;;;;;;19.70;17.60;;;;;;;;;;3592964;39;20492;-80
2021/06/10 06:07:02;;;;;;;19.23;17.33;;;;;;;;;;3604933;39;20449;-80
2021/06/10 06:09:29;;;;;;;20.90;18.00;;;;;;;;;;3601784;39;20491;-80
2021/06/10 06:11:56;;;;;;;20.17;18.07;;;;;;;;;;3598655;39;20406;-80
2021/06/10 06:14:28;;;;;;;18.07;16.27;;;;;;;;;;3602928;39;20503;-80
2021/06/10 06:16:54;;;;;;;18.43;16.50;;;;;;;;;;3603116;39;20399;-83
2021/06/10 06:19:20;;;;;;;18.10;16.33;;;;;;;;;;3597176;39;20418;-82
2021/06/10 06:21:47;;;;;;;17.67;16.03;;;;;;;;;;3604578;39;20505;-82
2021/06/10 06:24:14;;;;;;;16.60;15.00;;;;;;;;;;3594636;39;20418;-82
2021/06/10 06:26:42;;;;;;;18.03;16.17;;;;;;;;;;3605306;39;20416;-82
2021/06/10 06:29:09;;;;;;;17.37;15.73;;;;;;;;;;3606264;39;20425;-81
2021/06/10 06:31:37;;;;;;;17.03;15.00;;;;;;;;;;3612777;39;20398;-81
2021/06/10 06:34:03;;;;;;;16.83;15.10;;;;;;;;;;3610980;39;20394;-81
2021/06/10 06:36:31;;;;;;;15.23;13.87;;;;;;;;;;3605157;39;20426;-81
2021/06/10 06:38:59;;;;;;;15.87;13.80;;;;;;;;;;3591601;39;20522;-82
2021/06/10 06:41:25;;;;;;;13.93;12.53;;;;;;;;;;3597094;39;20418;-83
2021/06/10 06:43:51;;;;;;;12.57;11.00;;;;;;;;;;3594400;39;20413;-81
2021/06/10 06:46:19;;;;;;;13.53;11.40;;;;;;;;;;3604067;39;20770;-82
2021/06/10 06:48:45;;;;;;;12.47;10.10;;;;;;;;;;3594666;39;20505;-82
2021/06/10 06:51:11;;;;;;;10.27;9.27;;;;;;;;;;3601871;39;20414;-82
2021/06/10 06:53:37;;;;;;;10.40;9.40;;;;;;;;;;3603594;39;20443;-81
2021/06/10 06:56:05;;;;;;;18.60;10.50;;;;;;;;;;3597825;39;20412;-81
2021/06/10 06:58:31;;;;;;;10.43;9.57;;;;;;;;;;3595458;39;20410;-81
2021/06/10 07:00:58;;;;;;;15.07;11.00;;;;;;;;;;3603019;39;20868;-81
2021/06/10 07:03:24;;;;;;;9.03;8.30;;;;;;;;;;3590700;39;20510;-81
2021/06/10 07:05:53;;;;;;;8.60;7.87;;;;;;;;;;3605490;39;20412;-85
2021/06/10 07:08:19;;;;;;;10.30;8.17;;;;;;;;;;3598653;39;20499;-80
2021/06/10 07:10:45;;;;;;;8.93;8.23;;;;;;;;;;3594736;39;20411;-80
2021/06/10 07:13:13;;;;;;;10.63;9.67;;;;;;;;;;3598417;39;23551;-81
2021/06/10 07:15:41;;;;;;;9.03;8.33;;;;;;;;;;3605779;39;20919;-81
2021/06/10 07:18:07;;;;;;;8.60;7.70;;;;;;;;;;3606094;39;20498;-81
2021/06/10 07:20:34;;;;;;;9.40;8.40;;;;;;;;;;3596638;39;20436;-81
2021/06/10 07:23:01;;;;;;;9.53;8.50;;;;;;;;;;3596707;39;20430;-81
2021/06/10 07:25:27;;;;;;;8.93;7.43;;;;;;;;;;3602779;39;20416;-82
2021/06/10 07:27:53;;;;;;;7.60;7.00;;;;;;;;;;3596677;39;20817;-81
2021/06/10 07:30:21;;;;;;;7.93;7.23;;;;;;;;;;3598768;39;20430;-81
2021/06/10 07:32:48;;;;;;;8.07;7.37;;;;;;;;;;3601798;39;20443;-80
2021/06/10 07:35:24;;;;;;;7.53;7.03;;;;;;;;;;3597881;39;20422;-82
2021/06/10 07:38:01;;;;;;;6.73;6.33;;;;;;;;;;3603591;39;20401;-83
2021/06/10 07:40:47;;;;;;;7.17;6.57;;;;;;;;;;3596223;39;20429;-84
2021/06/10 07:43:24;;;;;;;7.20;6.80;;;;;;;;;;3595709;39;20422;-82
2021/06/10 07:46:01;;;;;;;7.07;6.57;;;;;;;;;;3595167;39;20406;-84
2021/06/10 07:48:37;;;;;;;8.53;7.87;;;;;;;;;;3611138;39;20398;-81
2021/06/10 07:51:35;;;;;;;7.57;6.80;;;;;;;;;;3603786;39;20433;-83
2021/06/10 07:54:01;;;;;;;6.70;6.20;;;;;;;;;;3584808;40;21140;-81
2021/06/10 07:57:10;;;;;;;7.73;7.03;;;;;;;;;;3536834;40;20605;-82
2021/06/10 08:00:11;;;;;;;8.80;8.00;;;;;;;;;;3525491;40;20962;-83
2021/06/10 08:03:06;;;;;;;7.80;7.20;;;;;;;;;;3543723;40;20434;-81
2021/06/10 08:06:10;;;;;;;9.37;8.07;;;;;;;;;;3509848;40;20479;-81
2021/06/10 08:15:37;;;;;;;8.13;7.40;;;;;;;;;;3447562;41;20574;-80
2021/06/10 08:18:59;;;;;;;8.00;7.50;;;;;;;;;;3447914;41;20454;-79
2021/06/10 08:21:55;;;;;;;8.80;8.00;;;;;;;;;;3428356;41;20478;-80
2021/06/10 08:25:59;;;;;;;;;;;;;;;;;;;;;
2021/06/10 08:28:50;;;;;;;9.00;8.20;;;;;;;;;;3370027;42;20437;-81
2021/06/10 08:32:07;;;;;;;8.43;7.70;;;;;;;;;;3365498;42;20775;-81
2021/06/10 08:34:56;;;;;;;8.50;7.63;;;;;;;;;;3621479;39;20508;-80
2021/06/10 08:37:22;;;;;;;9.13;8.50;;;;;;;;;;3609400;39;20426;-80
2021/06/10 08:39:48;;;;;;;10.10;9.50;;;;;;;;;;3596869;39;21220;-80
2021/06/10 08:42:15;;;;;;;10.40;9.40;;;;;;;;;;3591608;39;20458;-80
2021/06/10 08:44:43;;;;;;;10.30;9.40;;;;;;;;;;3584172;39;20522;-80
2021/06/10 08:47:10;;;;;;;10.83;9.60;;;;;;;;;;3602645;39;20429;-80
2021/06/10 08:49:36;;;;;;;9.57;8.63;;;;;;;;;;3600417;39;20406;-80
2021/06/10 08:52:06;;;;;;;10.43;9.27;;;;;;;;;;3599563;39;20407;-80
2021/06/10 08:54:32;;;;;;;10.10;9.10;;;;;;;;;;3611042;39;20399;-79
2021/06/10 08:56:58;;;;;;;9.03;8.43;;;;;;;;;;3594217;39;20486;-79
2021/06/10 08:59:24;;;;;;;8.37;7.77;;;;;;;;;;3603140;39;20465;-80
2021/06/10 09:01:50;;;;;;;9.57;8.97;;;;;;;;;;3601444;39;20447;-80
2021/06/10 09:04:17;;;;;;;9.33;8.63;;;;;;;;;;3599957;39;20415;-80
2021/06/10 09:06:49;;;;;;;8.80;8.30;;;;;;;;;;3595654;39;20410;-80
2021/06/10 09:09:17;;;;;;;9.23;8.53;;;;;;;;;;3601333;39;20400;-80
2021/06/10 09:11:43;;;;;;;9.43;8.73;;;;;;;;;;3602586;39;20388;-80
2021/06/10 09:14:09;;;;;;;9.33;8.50;;;;;;;;;;3592574;39;21277;-81
2021/06/10 09:16:39;;;;;;;9.77;9.00;;;;;;;;;;3592719;39;20411;-80
2021/06/10 09:19:13;;;;;;;9.27;8.63;;;;;;;;;;3591812;39;20422;-81
2021/06/10 09:21:41;;;;;;;11.83;8.80;;;;;;;;;;3592141;39;20427;-80
2021/06/10 09:24:24;;;;;;;9.50;8.90;;;;;;;;;;3593921;39;20704;-80
2021/06/10 09:27:02;;;;;;;10.53;9.60;;;;;;;;;;3602457;39;21020;-79
2021/06/10 09:29:41;;;;;;;7.90;6.70;;;;;;;;;;3604380;39;20846;-80
2021/06/10 09:32:13;;;;;;;9.77;8.77;;;;;;;;;;3593349;39;20410;-80
2021/06/10 09:34:44;;;;;;;9.00;8.30;;;;;;;;;;3593296;39;20955;-80
2021/06/10 09:37:11;;;;;;;8.53;7.73;;;;;;;;;;3602976;39;21044;-80
2021/06/10 09:39:56;;;;;;;9.10;8.50;;;;;;;;;;3593044;39;20461;-80
2021/06/10 09:42:26;;;;;;;9.10;8.23;;;;;;;;;;3593247;39;20499;-79
2021/06/10 09:44:57;;;;;;;9.83;8.93;;;;;;;;;;3598384;39;21109;-80
2021/06/10 09:47:33;;;;;;;12.03;9.43;;;;;;;;;;3578908;39;20420;-80
2021/06/10 09:50:16;;;;;;;8.53;7.73;;;;;;;;;;3595335;39;20431;-80
2021/06/10 09:52:50;;;;;;;8.73;8.00;;;;;;;;;;3595754;39;20400;-80
2021/06/10 09:55:30;;;;;;;7.27;6.77;;;;;;;;;;3584824;39;20456;-79
2021/06/10 09:57:58;;;;;;;8.70;7.90;;;;;;;;;;3594998;39;20505;-80
2021/06/10 10:00:27;;;;;;;7.17;6.63;;;;;;;;;;3586679;39;21194;-80
2021/06/10 10:02:54;;;;;;;7.47;6.60;;;;;;;;;;3595920;39;20412;-80
2021/06/10 10:05:22;;;;;;;7.80;7.30;;;;;;;;;;3588869;39;20419;-80
2021/06/10 10:07:48;;;;;;;9.27;8.13;;;;;;;;;;3595156;39;20404;-80
2021/06/10 10:10:15;;;;;;;8.30;6.60;;;;;;;;;;3585444;39;20423;-80
2021/06/10 10:13:08;;;;;;;7.20;6.50;;;;;;;;;;3587026;39;20485;-80
2021/06/10 10:15:36;;;;;;;6.73;6.23;;;;;;;;;;3570587;40;20414;-80
2021/06/10 10:18:02;;;;;;;6.63;6.23;;;;;;;;;;3571545;40;20426;-80
2021/06/10 10:20:28;;;;;;;7.33;6.73;;;;;;;;;;3554294;40;20426;-81
2021/06/10 10:22:54;;;;;;;7.63;6.93;;;;;;;;;;3548246;40;20425;-79
2021/06/10 10:25:20;;;;;;;8.13;7.03;;;;;;;;;;3563611;40;20421;-79
2021/06/10 10:27:46;;;;;;;10.30;7.43;;;;;;;;;;3571767;40;20564;-79
2021/06/10 10:30:13;;;;;;;7.83;7.33;;;;;;;;;;3563143;40;20413;-79
2021/06/10 10:32:43;;;;;;;8.90;8.23;;;;;;;;;;3556454;40;20437;-79
2021/06/10 10:35:21;;;;;;;8.07;7.53;;;;;;;;;;3559924;40;21374;-79
2021/06/10 10:37:51;;;;;;;8.43;7.90;;;;;;;;;;3556579;40;21063;-79
2021/06/10 10:40:24;;;;;;;6.53;5.83;;;;;;;;;;3563790;40;20421;-79
2021/06/10 10:42:54;;;;;;;7.17;6.60;;;;;;;;;;3564606;40;21175;-79
2021/06/10 10:45:21;;;;;;;10.30;9.23;;;;;;;;;;3556172;40;20524;-79
2021/06/10 10:47:47;;;;;;;6.37;5.97;;;;;;;;;;3571763;40;20425;-79
2021/06/10 10:50:20;;;;;;;8.10;7.50;;;;;;;;;;3565892;40;20503;-79
2021/06/10 10:52:56;;;;;;;7.27;6.67;;;;;;;;;;3574403;39;21126;-80
2021/06/10 10:55:29;;;;;;;10.90;9.73;;;;;;;;;;3584761;39;20392;-80
2021/06/10 10:58:06;;;;;;;10.33;8.77;;;;;;;;;;3585093;39;20544;-80
2021/06/10 11:00:51;;;;;;;7.47;6.97;;;;;;;;;;3584614;39;20440;-80
2021/06/10 11:03:18;;;;;;;7.53;6.90;;;;;;;;;;3594869;39;20970;-81
2021/06/10 11:05:44;;;;;;;10.93;10.23;;;;;;;;;;3587167;39;20483;-80
2021/06/10 11:08:11;;;;;;;10.37;9.40;;;;;;;;;;3585977;39;20408;-80
2021/06/10 11:10:49;;;;;;;7.50;6.80;;;;;;;;;;3594114;39;20396;-80
2021/06/10 11:13:18;;;;;;;9.57;8.80;;;;;;;;;;3594125;39;20385;-80
2021/06/10 11:15:45;;;;;;;8.93;8.33;;;;;;;;;;3578837;39;20545;-80
2021/06/10 11:18:12;;;;;;;9.57;8.90;;;;;;;;;;3587048;39;20506;-80
2021/06/10 11:20:38;;;;;;;8.60;7.80;;;;;;;;;;3595193;39;20424;-80
2021/06/10 11:23:18;;;;;;;7.70;7.30;;;;;;;;;;3587209;39;20404;-80
2021/06/10 11:25:44;;;;;;;8.77;8.17;;;;;;;;;;3594702;39;20461;-80
2021/06/10 11:28:10;;;;;;;8.63;6.87;;;;;;;;;;3593932;39;20440;-80
2021/06/10 11:30:39;;;;;;;7.33;6.77;;;;;;;;;;3593868;39;20411;-80
2021/06/10 11:33:17;;;;;;;7.40;6.80;;;;;;;;;;3593160;39;20439;-80
2021/06/10 11:35:44;;;;;;;8.00;7.50;;;;;;;;;;3595101;39;20411;-80
2021/06/10 11:38:31;;;;;;;9.27;7.47;;;;;;;;;;3595848;39;20423;-81
2021/06/10 11:41:03;;;;;;;7.87;7.37;;;;;;;;;;3595476;39;20413;-80
2021/06/10 11:43:29;;;;;;;9.10;6.80;;;;;;;;;;3593870;39;20451;-81
2021/06/10 11:46:03;;;;;;;7.40;7.00;;;;;;;;;;3583682;39;20827;-81
2021/06/10 11:48:50;;;;;;;6.27;5.87;;;;;;;;;;3584566;39;20508;-81
2021/06/10 11:51:37;;;;;;;7.17;6.77;;;;;;;;;;3595059;39;20403;-81
2021/06/10 11:54:10;;;;;;;8.20;6.70;;;;;;;;;;3592963;39;20415;-81
2021/06/10 11:56:36;;;;;;;7.17;6.70;;;;;;;;;;3592975;39;20415;-81
2021/06/10 11:59:18;;;;;;;7.70;7.10;;;;;;;;;;3593735;39;20428;-81
2021/06/10 12:02:03;;;;;;;8.03;7.40;;;;;;;;;;3595964;39;20443;-81
2021/06/10 12:04:34;;;;;;;6.90;6.40;;;;;;;;;;3593902;39;20447;-81
2021/06/10 12:07:09;;;;;;;7.00;6.57;;;;;;;;;;3595571;39;20427;-81
2021/06/10 12:09:35;;;;;;;6.57;6.17;;;;;;;;;;3584052;39;20712;-80
2021/06/10 12:12:02;;;;;;;7.80;7.30;;;;;;;;;;3585762;39;21217;-81
2021/06/10 12:14:38;;;;;;;6.80;6.20;;;;;;;;;;3591316;39;20423;-80
2021/06/10 12:17:06;;;;;;;6.50;6.20;;;;;;;;;;3584602;39;20395;-81
2021/06/10 12:19:32;;;;;;;6.40;6.00;;;;;;;;;;3585858;39;20408;-80
2021/06/10 12:21:59;;;;;;;6.00;5.47;;;;;;;;;;3579162;39;20423;-81
2021/06/10 12:24:26;;;;;;;6.57;6.10;;;;;;;;;;3576982;39;20490;-80
2021/06/10 12:26:53;;;;;;;5.83;5.43;;;;;;;;;;3594319;39;20673;-81
2021/06/10 12:29:20;;;;;;;8.53;6.63;;;;;;;;;;3601609;39;20461;-79
2021/06/10 12:32:12;;;;;;;7.03;6.63;;;;;;;;;;3593164;39;20482;-80
2021/06/10 12:34:51;;;;;;;6.60;6.20;;;;;;;;;;3571625;40;20465;-81
2021/06/10 12:37:18;;;;;;;8.60;7.90;;;;;;;;;;3566618;40;20428;-80
2021/06/10 12:39:44;;;;;;;8.40;7.80;;;;;;;;;;3565871;40;20837;-81
2021/06/10 12:42:12;;;;;;;9.27;8.57;;;;;;;;;;3563862;40;20422;-80
2021/06/10 12:44:38;;;;;;;8.90;8.33;;;;;;;;;;3573105;40;20437;-80
2021/06/10 12:47:06;;;;;;;7.93;6.40;;;;;;;;;;3562234;40;20466;-81
2021/06/10 12:49:38;;;;;;;7.10;6.70;;;;;;;;;;3572734;40;20424;-80
2021/06/10 12:52:11;;;;;;;7.57;7.10;;;;;;;;;;3567332;40;20418;-80
2021/06/10 12:54:37;;;;;;;6.90;6.60;;;;;;;;;;3565210;40;20410;-80
2021/06/10 12:57:04;;;;;;;7.97;7.40;;;;;;;;;;3572076;40;20409;-80
2021/06/10 12:59:38;;;;;;;7.67;7.27;;;;;;;;;;3572216;40;20528;-80
2021/06/10 13:02:09;;;;;;;6.30;6.00;;;;;;;;;;3565764;40;21119;-80
2021/06/10 13:04:36;;;;;;;7.73;7.33;;;;;;;;;;3571657;40;20404;-80
2021/06/10 13:07:03;;;;;;;8.33;7.60;;;;;;;;;;3572055;40;20402;-80
2021/06/10 13:09:29;;;;;;;7.67;7.07;;;;;;;;;;3570792;40;20418;-80
2021/06/10 13:12:14;;;;;;;7.40;7.00;;;;;;;;;;3576038;39;21229;-80
2021/06/10 13:14:41;;;;;;;8.10;7.60;;;;;;;;;;3582746;39;20385;-79
2021/06/10 13:17:08;;;;;;;8.10;7.60;;;;;;;;;;3578518;39;20419;-80
2021/06/10 13:19:36;;;;;;;8.63;8.13;;;;;;;;;;3583033;39;20423;-80
2021/06/10 13:22:09;;;;;;;7.93;7.60;;;;;;;;;;3588452;39;20403;-80
2021/06/10 13:24:49;;;;;;;8.80;8.30;;;;;;;;;;3587601;39;20860;-80
2021/06/10 13:27:16;;;;;;;9.60;8.47;;;;;;;;;;3585514;39;20425;-79
2021/06/10 13:30:02;;;;;;;8.30;7.80;;;;;;;;;;3593613;39;21140;-81
2021/06/10 13:32:29;;;;;;;8.07;7.57;;;;;;;;;;3594505;39;20414;-80
2021/06/10 13:37:31;;;;;;;6.50;5.90;;;;;;;;;;3585904;39;20399;-81
2021/06/10 13:39:57;;;;;;;6.90;6.40;;;;;;;;;;3585389;39;20416;-81
2021/06/10 13:42:24;;;;;;;8.73;8.33;;;;;;;;;;3595665;39;21416;-80
2021/06/10 13:44:51;;;;;;;8.93;8.43;;;;;;;;;;3595700;39;22175;-80
2021/06/10 13:47:18;;;;;;;9.17;8.57;;;;;;;;;;3595042;39;20407;-80
2021/06/10 13:49:45;;;;;;;8.97;8.33;;;;;;;;;;3596802;39;20396;-79
2021/06/10 13:52:11;;;;;;;6.73;6.10;;;;;;;;;;3587700;39;20451;-79
2021/06/10 13:54:37;;;;;;;8.53;7.90;;;;;;;;;;3602605;39;20423;-80
2021/06/10 13:57:04;;;;;;;6.03;5.60;;;;;;;;;;3593569;39;20396;-80
2021/06/10 13:59:31;;;;;;;8.40;7.57;;;;;;;;;;3594781;39;20417;-82
2021/06/10 14:01:57;;;;;;;7.80;7.40;;;;;;;;;;3584933;39;20444;-81
2021/06/10 14:04:25;;;;;;;7.80;7.27;;;;;;;;;;3595998;39;20396;-81
2021/06/10 14:06:51;;;;;;;7.67;7.27;;;;;;;;;;3594428;39;20411;-81
2021/06/10 14:09:19;;;;;;;7.60;7.00;;;;;;;;;;3580273;39;20415;-81
2021/06/10 14:11:45;;;;;;;6.57;6.20;;;;;;;;;;3578677;39;20404;-80
2021/06/10 14:14:14;;;;;;;6.57;6.07;;;;;;;;;;3585687;39;20392;-80
2021/06/10 14:16:40;;;;;;;6.93;6.33;;;;;;;;;;3584200;39;20420;-81
2021/06/10 14:19:09;;;;;;;6.67;6.27;;;;;;;;;;3579901;39;20473;-81
2021/06/10 14:21:36;;;;;;;6.23;5.50;;;;;;;;;;3594748;39;20412;-80
2021/06/10 14:24:03;;;;;;;8.90;7.90;;;;;;;;;;3583005;39;20478;-81
2021/06/10 14:26:29;;;;;;;8.03;7.33;;;;;;;;;;3578158;39;20412;-81
2021/06/10 14:29:07;;;;;;;6.97;6.50;;;;;;;;;;3590694;39;20426;-81
2021/06/10 14:34:19;;;;;;;8.47;7.87;;;;;;;;;;3595846;39;20416;-80
2021/06/10 14:36:46;;;;;;;9.17;8.50;;;;;;;;;;3593239;39;20431;-80
2021/06/10 14:39:13;;;;;;;8.77;7.70;;;;;;;;;;3601047;39;20424;-80
2021/06/10 14:41:39;;;;;;;7.97;7.00;;;;;;;;;;3596976;39;20474;-81
2021/06/10 14:44:06;;;;;;;6.97;6.57;;;;;;;;;;3585750;39;20455;-80
2021/06/10 14:46:33;;;;;;;10.50;7.20;;;;;;;;;;3582854;39;20414;-80
2021/06/10 14:49:01;;;;;;;7.20;6.80;;;;;;;;;;3593678;39;20463;-82
2021/06/10 14:51:27;;;;;;;8.20;7.20;;;;;;;;;;3593693;39;20468;-80
2021/06/10 14:53:53;;;;;;;7.20;6.60;;;;;;;;;;3585304;39;20399;-80
2021/06/10 14:56:45;;;;;;;5.90;5.60;;;;;;;;;;3585754;39;20401;-81
2021/06/10 14:59:12;;;;;;;6.13;5.83;;;;;;;;;;3568219;40;20920;-80